createdAt,value
2022-12-06T00:00:09.949Z,2.80
2022-12-06T00:02:40.711Z,2.76
2022-12-06T00:05:09.216Z,2.71
2022-12-06T00:07:39.703Z,2.69
2022-12-06T00:10:08.866Z,2.63
2022-12-06T00:12:36.918Z,2.73
2022-12-06T00:15:05.648Z,2.71
2022-12-06T00:17:33.426Z,2.78
2022-12-06T00:20:01.560Z,2.76
2022-12-06T00:22:30.140Z,2.78
2022-12-06T00:24:59.297Z,2.79
2022-12-06T00:27:27.080Z,2.79
2022-12-06T00:29:54.869Z,2.76
2022-12-06T00:32:22.760Z,2.74
2022-12-06T00:34:50.835Z,2.70
2022-12-06T00:37:18.660Z,2.73
2022-12-06T00:39:46.799Z,2.71
2022-12-06T00:42:15.955Z,2.74
2022-12-06T00:44:43.742Z,2.77
2022-12-06T00:47:11.602Z,2.80
2022-12-06T00:49:39.444Z,2.73
2022-12-06T00:52:07.245Z,2.80
2022-12-06T00:54:35.411Z,2.84
2022-12-06T00:57:03.187Z,2.83
2022-12-06T00:59:32.477Z,2.83
2022-12-06T01:02:00.284Z,2.85
2022-12-06T01:04:28.632Z,2.87
2022-12-06T01:06:56.415Z,2.93
2022-12-06T01:09:24.207Z,2.89
2022-12-06T01:11:51.864Z,2.87
2022-12-06T01:14:20.195Z,2.81
2022-12-06T01:16:49.269Z,2.75
2022-12-06T01:19:17.400Z,2.71
2022-12-06T01:21:45.025Z,2.72
2022-12-06T01:24:13.388Z,2.61
2022-12-06T01:26:41.035Z,2.49
2022-12-06T01:29:08.692Z,2.42
2022-12-06T01:31:39.078Z,2.40
2022-12-06T01:34:15.457Z,2.34
2022-12-06T01:36:43.519Z,2.38
2022-12-06T01:39:13.375Z,2.36
2022-12-06T01:41:41.076Z,2.38
2022-12-06T01:44:39.928Z,2.48
2022-12-06T01:47:13.108Z,2.48
2022-12-06T01:49:44.958Z,2.47
2022-12-06T01:52:15.167Z,2.50
2022-12-06T01:54:43.131Z,2.44
2022-12-06T01:57:14.756Z,2.45
2022-12-06T01:59:43.516Z,2.44
2022-12-06T02:02:11.566Z,2.42
2022-12-06T02:04:40.793Z,2.46
2022-12-06T02:07:09.916Z,2.51
2022-12-06T02:09:39.035Z,2.51
2022-12-06T02:12:12.988Z,2.57
2022-12-06T02:14:42.032Z,2.55
2022-12-06T02:17:21.605Z,2.53
2022-12-06T02:20:01.383Z,2.49
2022-12-06T02:22:46.256Z,2.41
2022-12-06T02:25:39.471Z,2.34
2022-12-06T02:28:32.487Z,2.15
2022-12-06T02:31:08.643Z,2.02
2022-12-06T02:33:41.976Z,1.97
2022-12-06T02:36:16.412Z,1.94
2022-12-06T02:38:48.037Z,1.89
2022-12-06T02:41:22.348Z,1.83
2022-12-06T02:43:57.577Z,1.93
2022-12-06T02:46:30.154Z,2.02
2022-12-06T02:49:00.476Z,2.00
2022-12-06T02:51:29.753Z,2.06
2022-12-06T02:54:00.166Z,2.03
2022-12-06T02:56:28.819Z,2.06
2022-12-06T02:58:57.303Z,2.14
2022-12-06T03:01:30.367Z,2.17
2022-12-06T03:04:19.292Z,2.24
2022-12-06T03:07:03.302Z,2.19
2022-12-06T03:09:49.855Z,2.20
2022-12-06T03:12:28.934Z,2.19
2022-12-06T03:15:04.730Z,2.27
2022-12-06T03:17:39.232Z,2.71
2022-12-06T03:20:13.100Z,2.67
2022-12-06T03:22:45.512Z,2.73
2022-12-06T03:25:15.284Z,2.65
2022-12-06T03:27:44.715Z,2.58
2022-12-06T03:30:14.667Z,2.55
2022-12-06T03:32:47.689Z,2.34
2022-12-06T03:35:20.488Z,2.18
2022-12-06T03:37:52.382Z,2.22
2022-12-06T03:40:25.539Z,2.17
2022-12-06T03:42:53.933Z,2.20
2022-12-06T03:45:24.598Z,2.22
2022-12-06T03:47:59.369Z,2.11
2022-12-06T03:50:33.826Z,2.18
2022-12-06T03:53:02.001Z,2.19
2022-12-06T03:55:30.190Z,2.07
2022-12-06T03:57:58.201Z,1.92
2022-12-06T04:00:26.144Z,1.91
2022-12-06T04:02:55.525Z,1.77
2022-12-06T04:05:23.274Z,1.81
2022-12-06T04:07:51.354Z,1.70
2022-12-06T04:10:19.055Z,1.74
2022-12-06T04:13:02.661Z,1.78
2022-12-06T04:15:32.022Z,1.62
2022-12-06T04:18:16.284Z,1.60
2022-12-06T04:21:07.740Z,1.59
2022-12-06T04:23:37.496Z,1.59
2022-12-06T04:26:09.337Z,1.56
2022-12-06T04:28:54.472Z,1.50
2022-12-06T04:31:41.394Z,1.53
2022-12-06T04:34:28.616Z,1.55
2022-12-06T04:37:14.670Z,1.60
2022-12-06T04:39:42.346Z,1.55
2022-12-06T04:42:29.221Z,1.57
2022-12-06T04:44:56.874Z,1.63
2022-12-06T04:47:24.872Z,1.96
2022-12-06T04:49:53.906Z,1.97
2022-12-06T04:52:22.595Z,1.93
2022-12-06T04:54:50.236Z,1.86
2022-12-06T04:57:18.780Z,1.77
2022-12-06T04:59:47.192Z,1.70
2022-12-06T05:02:17.212Z,1.68
2022-12-06T05:04:44.956Z,1.67
2022-12-06T05:07:14.371Z,1.63
2022-12-06T05:09:43.050Z,1.60
2022-12-06T05:12:11.132Z,1.52
2022-12-06T05:14:38.807Z,1.47
2022-12-06T05:17:06.465Z,1.48
2022-12-06T05:19:34.146Z,1.52
2022-12-06T05:22:02.534Z,1.50
2022-12-06T05:24:31.596Z,1.46
2022-12-06T05:26:59.243Z,1.42
2022-12-06T05:29:26.897Z,1.47
2022-12-06T05:31:54.653Z,1.46
2022-12-06T05:34:22.353Z,1.41
2022-12-06T05:36:50.043Z,1.36
2022-12-06T05:39:17.710Z,1.33
2022-12-06T05:41:47.309Z,1.46
2022-12-06T05:44:14.955Z,1.54
2022-12-06T05:46:42.946Z,1.66
2022-12-06T05:49:10.913Z,1.73
2022-12-06T05:51:38.901Z,1.76
2022-12-06T05:54:07.056Z,1.79
2022-12-06T05:56:34.782Z,1.82
2022-12-06T05:59:04.612Z,1.85
2022-12-06T06:01:32.680Z,1.67
2022-12-06T06:04:02.103Z,1.30
2022-12-06T06:06:30.371Z,1.22
2022-12-06T06:08:58.508Z,1.18
2022-12-06T06:11:26.201Z,1.16
2022-12-06T06:13:54.822Z,1.10
2022-12-06T06:16:23.937Z,1.02
2022-12-06T06:18:53.377Z,0.96
2022-12-06T06:21:21.030Z,0.95
2022-12-06T06:23:48.708Z,0.94
2022-12-06T06:26:16.372Z,1.00
2022-12-06T06:28:44.339Z,1.02
2022-12-06T06:31:12.363Z,1.01
2022-12-06T06:33:41.716Z,0.99
2022-12-06T06:36:09.980Z,1.05
2022-12-06T06:38:37.812Z,1.10
2022-12-06T06:41:06.465Z,1.05
2022-12-06T06:43:34.606Z,1.12
2022-12-06T06:46:03.862Z,1.18
2022-12-06T06:48:33.540Z,1.18
2022-12-06T06:51:04.764Z,1.11
2022-12-06T06:53:33.596Z,1.08
2022-12-06T06:56:01.401Z,1.01
2022-12-06T06:58:29.938Z,0.96
2022-12-06T07:00:59.927Z,0.93
2022-12-06T07:03:29.271Z,0.94
2022-12-06T07:05:58.830Z,0.93
2022-12-06T07:08:29.208Z,1.03
2022-12-06T07:10:56.978Z,1.00
2022-12-06T07:13:27.311Z,0.95
2022-12-06T07:15:55.324Z,0.96
2022-12-06T07:18:24.318Z,1.10
2022-12-06T07:21:00.301Z,1.16
2022-12-06T07:23:29.282Z,1.22
2022-12-06T07:26:01.790Z,1.17
2022-12-06T07:28:30.137Z,1.15
2022-12-06T07:30:57.997Z,1.00
2022-12-06T07:33:25.707Z,0.99
2022-12-06T07:38:43.937Z,1.02
2022-12-06T07:41:31.658Z,1.12
2022-12-06T07:44:18.906Z,1.29
2022-12-06T07:46:47.157Z,1.51
2022-12-06T07:49:17.060Z,1.74
2022-12-06T07:51:44.860Z,1.90
2022-12-06T07:54:15.116Z,2.03
2022-12-06T07:56:43.641Z,2.06
2022-12-06T07:59:12.338Z,2.12
2022-12-06T08:01:40.276Z,2.07
2022-12-06T08:04:08.213Z,2.07
2022-12-06T08:06:37.483Z,2.04
2022-12-06T08:09:07.504Z,2.01
2022-12-06T08:11:36.863Z,1.98
2022-12-06T08:14:05.602Z,1.97
2022-12-06T08:16:33.344Z,1.99
2022-12-06T08:19:02.057Z,2.01
2022-12-06T08:21:30.102Z,2.02
2022-12-06T08:23:57.794Z,2.13
2022-12-06T08:26:26.023Z,2.17
2022-12-06T08:28:54.999Z,2.24
2022-12-06T08:31:24.935Z,2.21
2022-12-06T08:33:52.710Z,2.25
2022-12-06T08:36:22.792Z,2.31
2022-12-06T08:38:51.918Z,2.34
2022-12-06T08:41:38.434Z,2.38
2022-12-06T08:44:08.267Z,2.47
2022-12-06T08:46:36.641Z,2.49
2022-12-06T08:49:04.873Z,2.45
2022-12-06T08:51:34.389Z,2.54
2022-12-06T08:54:02.117Z,2.53
2022-12-06T08:56:32.107Z,2.47
2022-12-06T08:59:00.169Z,2.53
2022-12-06T09:01:37.395Z,2.52
2022-12-06T09:04:07.747Z,2.51
2022-12-06T09:06:37.872Z,2.52
2022-12-06T09:09:05.914Z,2.50
2022-12-06T09:11:34.460Z,2.47
2022-12-06T09:14:02.201Z,2.51
2022-12-06T09:16:32.055Z,2.50
2022-12-06T09:18:59.733Z,2.56
2022-12-06T09:21:31.150Z,2.60
2022-12-06T09:23:59.315Z,2.64
2022-12-06T09:26:28.666Z,2.63
2022-12-06T09:28:57.085Z,2.60
2022-12-06T09:31:25.020Z,2.59
2022-12-06T09:33:54.060Z,2.60
2022-12-06T09:36:25.117Z,2.59
2022-12-06T09:38:56.332Z,2.61
2022-12-06T09:41:40.356Z,2.68
2022-12-06T09:44:20.342Z,2.76
2022-12-06T09:47:01.604Z,2.81
2022-12-06T09:49:33.222Z,2.84
2022-12-06T09:52:29.937Z,2.88
2022-12-06T09:55:11.203Z,2.91
2022-12-06T09:57:46.621Z,2.96
2022-12-06T10:00:22.306Z,2.92
2022-12-06T10:03:10.864Z,2.92
2022-12-06T10:05:55.729Z,2.90
2022-12-06T10:08:34.574Z,2.86
2022-12-06T10:11:15.916Z,2.88
2022-12-06T10:13:58.048Z,2.48
2022-12-06T10:16:42.294Z,2.54
2022-12-06T10:19:21.324Z,2.59
2022-12-06T10:22:00.033Z,2.78
2022-12-06T10:24:43.113Z,2.84
2022-12-06T10:27:13.953Z,2.87
2022-12-06T10:29:52.818Z,2.92
2022-12-06T10:32:39.475Z,2.94
2022-12-06T10:35:18.480Z,3.06
2022-12-06T10:37:59.487Z,3.07
2022-12-06T10:40:32.287Z,3.09
2022-12-06T10:43:06.855Z,3.12
2022-12-06T10:46:03.063Z,3.13
2022-12-06T10:48:40.832Z,3.14
2022-12-06T10:51:13.341Z,3.18
2022-12-06T10:53:53.023Z,3.20
2022-12-06T10:56:25.849Z,3.23
2022-12-06T10:58:57.982Z,3.23
2022-12-06T11:01:29.151Z,3.29
2022-12-06T11:04:02.693Z,3.22
2022-12-06T11:06:36.363Z,3.21
2022-12-06T11:09:17.652Z,3.14
2022-12-06T11:11:46.447Z,3.27
2022-12-06T11:14:21.763Z,3.35
2022-12-06T11:16:56.820Z,3.41
2022-12-06T11:19:30.735Z,3.35
2022-12-06T11:22:05.275Z,3.42
2022-12-06T11:24:46.081Z,3.45
2022-12-06T11:27:22.724Z,3.49
2022-12-06T11:29:51.508Z,3.52
2022-12-06T11:32:20.293Z,3.52
2022-12-06T11:34:51.766Z,3.56
2022-12-06T11:37:22.326Z,3.59
2022-12-06T11:39:54.030Z,3.63
2022-12-06T11:42:26.666Z,3.66
2022-12-06T11:44:56.112Z,3.66
2022-12-06T11:47:24.682Z,3.63
2022-12-06T11:49:54.956Z,3.58
2022-12-06T11:52:29.254Z,3.63
2022-12-06T11:55:02.152Z,3.54
2022-12-06T11:57:36.285Z,3.59
2022-12-06T12:00:13.742Z,3.63
2022-12-06T12:02:44.994Z,3.70
2022-12-06T12:05:19.728Z,3.74
2022-12-06T12:07:51.912Z,3.75
2022-12-06T12:10:32.754Z,3.80
2022-12-06T12:13:35.855Z,3.82
2022-12-06T12:16:07.407Z,3.77
2022-12-06T12:18:37.773Z,3.77
2022-12-06T12:21:07.913Z,3.78
2022-12-06T12:23:38.084Z,3.80
2022-12-06T12:26:16.579Z,3.87
2022-12-06T12:28:46.480Z,3.91
2022-12-06T12:31:19.807Z,3.94
2022-12-06T12:33:48.378Z,3.92
2022-12-06T12:36:20.315Z,3.98
2022-12-06T12:38:56.070Z,4.04
2022-12-06T12:41:30.103Z,4.08
2022-12-06T12:44:35.445Z,4.06
2022-12-06T12:46:55.459Z,4.00
2022-12-06T12:49:30.422Z,3.99
2022-12-06T12:51:59.363Z,3.95
2022-12-06T12:54:31.772Z,3.95
2022-12-06T12:57:02.973Z,3.92
2022-12-06T12:59:38.483Z,3.91
2022-12-06T13:02:17.135Z,3.98
2022-12-06T13:04:50.789Z,4.02
2022-12-06T13:07:28.481Z,4.07
2022-12-06T13:10:02.990Z,4.03
2022-12-06T13:12:38.568Z,4.04
2022-12-06T13:15:15.176Z,4.00
2022-12-06T13:17:45.122Z,3.94
2022-12-06T13:20:23.381Z,4.01
2022-12-06T13:22:53.339Z,4.02
2022-12-06T13:25:21.894Z,3.98
2022-12-06T13:27:54.788Z,3.98
2022-12-06T13:30:25.082Z,4.01
2022-12-06T13:32:56.241Z,3.94
2022-12-06T13:35:29.555Z,3.96
2022-12-06T13:37:59.356Z,3.97
2022-12-06T13:40:45.900Z,4.02
2022-12-06T13:43:58.799Z,3.98
2022-12-06T13:46:34.667Z,3.92
2022-12-06T13:49:05.047Z,3.93
2022-12-06T13:51:49.199Z,4.04
2022-12-06T13:54:31.597Z,4.12
2022-12-06T13:57:00.901Z,4.20
2022-12-06T13:59:40.298Z,4.22
2022-12-06T14:02:52.677Z,4.21
2022-12-06T14:08:33.919Z,3.95
2022-12-06T14:11:15.874Z,3.90
2022-12-06T14:13:46.106Z,3.76
2022-12-06T14:16:22.541Z,3.54
2022-12-06T14:18:51.366Z,3.65
2022-12-06T14:21:24.946Z,3.52
2022-12-06T14:23:53.341Z,3.48
2022-12-06T14:26:24.786Z,3.66
2022-12-06T14:28:54.044Z,3.59
2022-12-06T14:31:25.734Z,3.65
2022-12-06T14:33:56.172Z,3.72
2022-12-06T14:36:31.912Z,3.82
2022-12-06T14:39:02.728Z,3.90
2022-12-06T14:41:51.172Z,3.87
2022-12-06T14:44:20.435Z,3.90
2022-12-06T14:46:50.563Z,3.94
2022-12-06T14:49:39.641Z,3.88
2022-12-06T14:52:24.499Z,3.86
2022-12-06T14:54:53.305Z,3.93
2022-12-06T14:57:26.353Z,3.93
2022-12-06T15:00:22.575Z,3.94
2022-12-06T15:03:23.769Z,3.87
2022-12-06T15:06:09.627Z,3.89
2022-12-06T15:08:40.336Z,3.84
2022-12-06T15:11:48.988Z,3.74
2022-12-06T15:14:18.931Z,3.75
2022-12-06T15:16:56.385Z,3.71
2022-12-06T15:19:24.254Z,3.56
2022-12-06T15:21:52.458Z,3.52
2022-12-06T15:24:22.704Z,3.37
2022-12-06T15:26:50.752Z,3.41
2022-12-06T15:29:18.720Z,3.38
2022-12-06T15:31:50.648Z,3.25
2022-12-06T15:34:29.027Z,3.16
2022-12-06T15:37:15.558Z,3.02
2022-12-06T15:39:48.336Z,2.96
2022-12-06T15:42:19.869Z,2.98
2022-12-06T15:45:01.122Z,3.11
2022-12-06T15:47:29.641Z,3.08
2022-12-06T15:49:58.303Z,2.99
2022-12-06T15:52:27.668Z,2.87
2022-12-06T15:54:57.593Z,2.95
2022-12-06T15:57:25.267Z,2.93
2022-12-06T15:59:53.240Z,2.75
2022-12-06T16:02:21.063Z,2.82
2022-12-06T16:04:50.941Z,2.83
2022-12-06T16:07:19.869Z,2.66
2022-12-06T16:09:48.257Z,2.69
2022-12-06T16:12:17.941Z,2.56
2022-12-06T16:14:45.616Z,2.65
2022-12-06T16:17:13.521Z,2.74
2022-12-06T16:19:59.004Z,2.75
2022-12-06T16:22:40.710Z,2.92
2022-12-06T16:25:09.031Z,2.94
2022-12-06T16:27:38.055Z,2.92
2022-12-06T16:30:06.904Z,2.87
2022-12-06T16:32:34.894Z,2.87
2022-12-06T16:35:03.016Z,2.93
2022-12-06T16:37:31.225Z,2.83
2022-12-06T16:39:58.853Z,2.88
2022-12-06T16:42:26.779Z,2.90
2022-12-06T16:44:56.018Z,2.97
2022-12-06T16:49:50.417Z,2.74
2022-12-06T16:52:18.529Z,2.94
2022-12-06T16:54:46.523Z,2.90
2022-12-06T16:57:15.591Z,2.85
2022-12-06T16:59:43.617Z,2.80
2022-12-06T17:02:26.467Z,2.92
2022-12-06T17:04:55.507Z,3.01
2022-12-06T17:07:23.548Z,3.02
2022-12-06T17:09:51.218Z,3.03
2022-12-06T17:12:19.844Z,3.03
2022-12-06T17:14:47.638Z,3.10
2022-12-06T17:17:17.327Z,3.14
2022-12-06T17:19:46.551Z,3.13
2022-12-06T17:22:16.613Z,3.23
2022-12-06T17:24:44.494Z,3.26
2022-12-06T17:27:14.759Z,3.26
2022-12-06T17:29:43.352Z,3.24
2022-12-06T17:32:11.460Z,3.29
2022-12-06T17:34:39.322Z,3.17
2022-12-06T17:37:09.067Z,3.27
2022-12-06T17:39:37.547Z,3.36
2022-12-06T17:42:23.716Z,3.38
2022-12-06T17:44:51.623Z,3.25
2022-12-06T17:47:20.280Z,3.46
2022-12-06T17:49:48.133Z,3.38
2022-12-06T17:52:17.682Z,3.48
2022-12-06T17:54:46.071Z,3.48
2022-12-06T17:57:17.485Z,3.43
2022-12-06T17:59:46.601Z,3.46
2022-12-06T18:02:16.865Z,3.39
2022-12-06T18:04:47.737Z,3.52
2022-12-06T18:07:17.778Z,3.56
2022-12-06T18:09:46.321Z,4.01
2022-12-06T18:12:16.297Z,4.17
2022-12-06T18:14:44.612Z,3.60
2022-12-06T18:17:13.233Z,3.57
2022-12-06T18:19:41.424Z,3.58
2022-12-06T18:22:09.252Z,3.57
2022-12-06T18:24:38.341Z,3.56
2022-12-06T18:27:06.450Z,3.56
2022-12-06T18:29:35.493Z,3.52
2022-12-06T18:32:03.520Z,3.57
2022-12-06T18:34:32.539Z,3.58
2022-12-06T18:37:00.286Z,3.59
2022-12-06T18:39:28.416Z,3.57
2022-12-06T18:41:57.388Z,3.59
2022-12-06T18:44:26.311Z,3.56
2022-12-06T18:46:53.977Z,3.57
2022-12-06T18:49:22.052Z,3.54
2022-12-06T18:51:49.786Z,3.53
2022-12-06T18:54:17.439Z,3.53
2022-12-06T18:56:45.106Z,3.51
2022-12-06T18:59:14.142Z,3.48
2022-12-06T19:01:42.543Z,3.40
2022-12-06T19:04:14.550Z,3.38
2022-12-06T19:06:44.163Z,3.40
2022-12-06T19:09:14.501Z,3.36
2022-12-06T19:11:44.208Z,3.41
2022-12-06T19:14:12.172Z,3.37
2022-12-06T19:16:43.921Z,3.30
2022-12-06T19:19:16.495Z,3.28
2022-12-06T19:21:44.832Z,3.28
2022-12-06T19:24:13.298Z,3.34
2022-12-06T19:26:41.496Z,3.34
2022-12-06T19:29:09.409Z,3.32
2022-12-06T19:31:37.245Z,3.30
2022-12-06T19:34:06.614Z,3.33
2022-12-06T19:36:34.279Z,3.25
2022-12-06T19:39:05.873Z,3.28
2022-12-06T19:41:54.185Z,3.27
2022-12-06T19:44:21.401Z,3.24
2022-12-06T19:46:49.353Z,3.26
2022-12-06T19:49:20.495Z,3.19
2022-12-06T19:51:49.529Z,3.27
2022-12-06T19:54:19.955Z,3.26
2022-12-06T19:56:49.118Z,3.30
2022-12-06T19:59:17.153Z,3.28
2022-12-06T20:01:46.384Z,3.27
2022-12-06T20:04:15.594Z,3.27
2022-12-06T20:06:45.671Z,3.20
2022-12-06T20:09:13.999Z,3.25
2022-12-06T20:12:02.392Z,3.27
2022-12-06T20:14:33.911Z,3.24
2022-12-06T20:17:01.577Z,3.27
2022-12-06T20:19:29.622Z,3.30
2022-12-06T20:21:58.630Z,3.32
2022-12-06T20:24:26.585Z,3.14
2022-12-06T20:26:55.531Z,3.07
2022-12-06T20:29:23.779Z,3.12
2022-12-06T20:31:52.379Z,3.01
2022-12-06T20:34:20.539Z,3.17
2022-12-06T20:36:48.428Z,3.20
2022-12-06T20:39:22.616Z,3.24
2022-12-06T20:41:51.338Z,3.21
2022-12-06T20:44:20.032Z,3.24
2022-12-06T20:46:49.956Z,3.22
2022-12-06T20:49:18.079Z,3.30
2022-12-06T20:51:52.413Z,3.29
2022-12-06T20:54:22.739Z,3.22
2022-12-06T20:56:53.566Z,3.20
2022-12-06T20:59:22.048Z,3.02
2022-12-06T21:01:50.298Z,3.14
2022-12-06T21:04:18.455Z,3.08
2022-12-06T21:06:46.878Z,3.17
2022-12-06T21:09:14.677Z,3.00
2022-12-06T21:11:43.684Z,2.94
2022-12-06T21:14:12.900Z,3.12
2022-12-06T21:16:43.285Z,3.20
2022-12-06T21:19:13.559Z,3.18
2022-12-06T21:21:42.507Z,3.23
2022-12-06T21:24:13.093Z,3.18
2022-12-06T21:26:41.507Z,3.24
2022-12-06T21:29:15.455Z,3.04
2022-12-06T21:31:43.142Z,3.28
2022-12-06T21:34:11.426Z,3.22
2022-12-06T21:36:39.523Z,3.26
2022-12-06T21:39:07.540Z,3.16
2022-12-06T21:41:35.576Z,3.22
2022-12-06T21:44:03.393Z,3.25
2022-12-06T21:46:32.780Z,3.30
2022-12-06T21:49:01.557Z,3.33
2022-12-06T21:51:31.202Z,3.36
2022-12-06T21:53:59.535Z,3.37
2022-12-06T21:56:29.590Z,3.39
2022-12-06T21:58:59.887Z,3.40
2022-12-06T22:01:30.482Z,3.38
2022-12-06T22:04:02.091Z,3.39
2022-12-06T22:06:31.309Z,3.37
2022-12-06T22:09:01.009Z,3.38
2022-12-06T22:11:29.810Z,3.39
2022-12-06T22:13:58.625Z,3.36
2022-12-06T22:16:27.231Z,3.41
2022-12-06T22:18:55.360Z,3.41
2022-12-06T22:21:26.917Z,3.40
2022-12-06T22:23:57.348Z,3.38
2022-12-06T22:26:25.988Z,3.32
2022-12-06T22:28:53.650Z,3.30
2022-12-06T22:31:23.704Z,3.17
2022-12-06T22:33:52.367Z,3.21
2022-12-06T22:36:22.532Z,3.25
2022-12-06T22:38:53.196Z,3.19
2022-12-06T22:41:21.658Z,3.04
2022-12-06T22:43:52.000Z,3.03
2022-12-06T22:46:20.778Z,3.13
2022-12-06T22:48:49.100Z,3.12
2022-12-06T22:51:19.325Z,3.09
2022-12-06T22:53:49.954Z,3.14
2022-12-06T22:56:18.932Z,3.14
2022-12-06T22:58:46.756Z,3.22
2022-12-06T23:01:17.166Z,3.22
2022-12-06T23:03:45.603Z,3.29
2022-12-06T23:06:13.688Z,3.28
2022-12-06T23:08:41.690Z,3.29
2022-12-06T23:11:12.993Z,3.30
2022-12-06T23:13:42.602Z,3.28
2022-12-06T23:16:15.190Z,3.26
2022-12-06T23:18:43.488Z,3.26
2022-12-06T23:21:13.913Z,3.25
2022-12-06T23:23:43.980Z,3.25
2022-12-06T23:26:13.691Z,3.22
2022-12-06T23:28:43.017Z,3.22
2022-12-06T23:31:13.595Z,3.22
2022-12-06T23:33:42.064Z,3.21
2022-12-06T23:36:12.959Z,3.19
2022-12-06T23:38:41.228Z,3.18
2022-12-06T23:41:10.762Z,3.17
2022-12-06T23:43:39.700Z,3.18
2022-12-06T23:46:11.682Z,3.18
2022-12-06T23:48:40.051Z,3.18
2022-12-06T23:51:09.900Z,3.19
2022-12-06T23:53:39.184Z,3.19
2022-12-06T23:56:10.076Z,3.13
2022-12-06T23:58:37.927Z,3.11
